createdAt,value
2017-12-20T00:00:22.390Z,13.70
2017-12-20T00:02:51.284Z,13.00
2017-12-20T00:05:19.628Z,12.63
2017-12-20T00:07:47.228Z,13.33
2017-12-20T00:10:14.790Z,12.37
2017-12-20T00:12:42.338Z,13.43
2017-12-20T00:15:10.765Z,12.47
2017-12-20T00:17:38.341Z,11.40
2017-12-20T00:20:05.999Z,12.27
2017-12-20T00:22:33.593Z,12.70
2017-12-20T00:25:01.182Z,12.73
2017-12-20T00:27:28.924Z,13.03
2017-12-20T00:29:57.269Z,11.93
2017-12-20T00:32:24.847Z,14.53
2017-12-20T00:34:52.402Z,13.73
2017-12-20T00:37:20.074Z,11.17
2017-12-20T00:39:47.700Z,13.70
2017-12-20T00:42:15.296Z,13.80
2017-12-20T00:44:42.906Z,13.70
2017-12-20T00:47:10.620Z,13.60
2017-12-20T00:49:38.231Z,12.93
2017-12-20T00:52:05.856Z,14.50
2017-12-20T00:54:33.465Z,12.13
2017-12-20T00:57:01.076Z,12.60
2017-12-20T00:59:29.435Z,13.17
2017-12-20T01:01:57.081Z,12.87
2017-12-20T01:04:24.797Z,14.53
2017-12-20T01:06:53.123Z,12.93
2017-12-20T01:09:20.677Z,11.87
2017-12-20T01:11:48.335Z,11.60
2017-12-20T01:14:15.939Z,13.47
2017-12-20T01:16:43.582Z,14.13
2017-12-20T01:19:11.235Z,12.30
2017-12-20T01:21:38.846Z,11.17
2017-12-20T01:24:06.475Z,12.93
2017-12-20T01:26:34.039Z,12.27
2017-12-20T01:29:01.680Z,11.00
2017-12-20T01:31:29.310Z,10.73
2017-12-20T01:33:56.874Z,9.37
2017-12-20T01:36:24.569Z,11.87
2017-12-20T01:38:52.173Z,11.10
2017-12-20T01:41:19.792Z,10.30
2017-12-20T01:43:47.410Z,10.40
2017-12-20T01:46:15.034Z,9.80
2017-12-20T01:48:42.696Z,11.50
2017-12-20T01:51:10.357Z,14.00
2017-12-20T01:53:37.956Z,11.70
2017-12-20T01:56:05.613Z,11.73
2017-12-20T01:58:33.200Z,11.67
2017-12-20T02:01:00.820Z,11.50
2017-12-20T02:03:29.252Z,12.23
2017-12-20T02:05:56.798Z,12.60
2017-12-20T02:08:24.365Z,12.47
2017-12-20T02:10:51.946Z,11.83
2017-12-20T02:13:19.503Z,11.53
2017-12-20T02:15:47.068Z,14.20
2017-12-20T02:18:14.665Z,13.07
2017-12-20T02:20:42.233Z,10.67
2017-12-20T02:23:10.560Z,10.87
2017-12-20T02:25:38.149Z,11.87
2017-12-20T02:28:05.735Z,11.40
2017-12-20T02:30:33.306Z,10.50
2017-12-20T02:33:00.883Z,10.20
2017-12-20T02:35:28.454Z,10.20
2017-12-20T02:37:56.034Z,12.23
2017-12-20T02:40:23.615Z,10.80
2017-12-20T02:42:51.158Z,9.90
2017-12-20T02:45:18.759Z,11.10
2017-12-20T02:47:47.110Z,8.90
2017-12-20T02:50:14.685Z,8.93
2017-12-20T02:52:42.278Z,9.10
2017-12-20T02:55:09.865Z,8.60
2017-12-20T02:57:37.416Z,9.57
2017-12-20T03:00:05.013Z,9.90
2017-12-20T03:02:32.585Z,9.50
2017-12-20T03:05:00.153Z,8.80
2017-12-20T03:07:27.761Z,10.17
2017-12-20T03:09:55.305Z,8.63
2017-12-20T03:12:22.863Z,8.90
2017-12-20T03:14:50.434Z,8.80
2017-12-20T03:17:17.987Z,9.20
2017-12-20T03:19:45.553Z,8.77
2017-12-20T03:22:13.148Z,10.57
2017-12-20T03:24:41.481Z,11.33
2017-12-20T03:27:09.076Z,11.00
2017-12-20T03:29:37.394Z,11.03
2017-12-20T03:32:05.754Z,10.67
2017-12-20T03:34:33.349Z,9.07
2017-12-20T03:37:01.679Z,11.27
2017-12-20T03:39:29.246Z,9.13
2017-12-20T03:41:56.822Z,10.90
2017-12-20T03:44:24.366Z,9.60
2017-12-20T03:46:51.931Z,7.83
2017-12-20T03:49:19.529Z,7.90
2017-12-20T03:51:47.835Z,8.30
2017-12-20T03:54:15.411Z,7.00
2017-12-20T03:56:42.995Z,8.10
2017-12-20T03:59:10.551Z,7.60
2017-12-20T04:01:38.098Z,7.30
2017-12-20T04:04:05.691Z,8.30
2017-12-20T04:06:33.243Z,9.70
2017-12-20T04:09:00.818Z,10.33
2017-12-20T04:11:29.182Z,11.20
2017-12-20T04:13:56.726Z,8.67
2017-12-20T04:16:24.317Z,7.90
2017-12-20T04:18:51.876Z,8.20
2017-12-20T04:21:19.449Z,8.07
2017-12-20T04:23:47.153Z,8.90
2017-12-20T04:26:14.704Z,7.97
2017-12-20T04:28:42.297Z,8.40
2017-12-20T04:31:09.849Z,9.10
2017-12-20T04:33:37.410Z,7.73
2017-12-20T04:36:04.999Z,7.00
2017-12-20T04:38:32.561Z,7.70
2017-12-20T04:41:00.128Z,7.50
2017-12-20T04:43:27.707Z,7.57
2017-12-20T04:45:55.310Z,6.63
2017-12-20T04:48:22.868Z,6.80
2017-12-20T04:50:50.441Z,8.77
2017-12-20T04:53:18.037Z,7.60
2017-12-20T04:55:46.406Z,7.50
2017-12-20T04:58:13.977Z,7.33
2017-12-20T05:00:42.323Z,7.77
2017-12-20T05:03:09.881Z,7.37
2017-12-20T05:05:37.443Z,7.67
2017-12-20T05:08:05.020Z,11.00
2017-12-20T05:10:32.586Z,7.23
2017-12-20T05:13:00.514Z,8.13
2017-12-20T05:15:28.084Z,7.13
2017-12-20T05:17:56.385Z,5.73
2017-12-20T05:20:23.959Z,6.30
2017-12-20T05:22:52.290Z,6.10
2017-12-20T05:25:26.963Z,6.97
2017-12-20T05:27:54.887Z,6.60
2017-12-20T05:30:22.423Z,6.30
2017-12-20T05:32:49.988Z,6.40
2017-12-20T05:35:18.370Z,6.70
2017-12-20T05:37:45.933Z,6.60
2017-12-20T05:40:13.491Z,6.83
2017-12-20T05:42:41.100Z,6.07
2017-12-20T05:45:08.664Z,6.03
2017-12-20T05:47:36.239Z,5.60
2017-12-20T05:50:04.627Z,6.07
2017-12-20T05:52:32.192Z,7.00
2017-12-20T05:55:00.542Z,6.83
2017-12-20T05:57:28.146Z,6.13
2017-12-20T05:59:55.708Z,6.13
2017-12-20T06:02:23.255Z,5.23
2017-12-20T06:04:51.619Z,5.53
2017-12-20T06:07:19.162Z,5.87
2017-12-20T06:09:46.720Z,5.60
2017-12-20T06:12:14.313Z,4.73
2017-12-20T06:14:42.637Z,4.70
2017-12-20T06:17:10.226Z,5.27
2017-12-20T06:19:37.808Z,6.20
2017-12-20T06:22:05.398Z,6.43
2017-12-20T06:24:32.957Z,4.60
2017-12-20T06:27:00.547Z,5.60
2017-12-20T06:29:28.923Z,5.73
2017-12-20T06:31:56.471Z,6.00
2017-12-20T06:34:24.038Z,5.67
2017-12-20T06:36:51.620Z,4.63
2017-12-20T06:39:19.174Z,5.33
2017-12-20T06:41:46.746Z,4.17
2017-12-20T06:44:14.348Z,4.77
2017-12-20T06:46:41.898Z,4.40
2017-12-20T06:49:10.233Z,4.53
2017-12-20T06:51:37.804Z,5.27
2017-12-20T06:54:05.342Z,4.63
2017-12-20T06:56:32.901Z,4.60
2017-12-20T06:59:00.487Z,4.10
2017-12-20T07:01:28.819Z,4.70
2017-12-20T07:03:56.370Z,4.47
2017-12-20T07:06:24.018Z,4.93
2017-12-20T07:08:52.349Z,4.93
2017-12-20T07:11:19.925Z,4.70
2017-12-20T07:13:47.495Z,5.27
2017-12-20T07:16:15.038Z,4.17
2017-12-20T07:18:43.367Z,5.60
2017-12-20T07:21:10.931Z,4.70
2017-12-20T07:23:38.514Z,5.00
2017-12-20T07:26:06.642Z,5.17
2017-12-20T07:28:34.999Z,5.77
2017-12-20T07:31:02.596Z,5.67
2017-12-20T07:33:30.962Z,4.87
2017-12-20T07:35:58.543Z,5.60
2017-12-20T07:38:26.872Z,6.13
2017-12-20T07:40:54.451Z,6.47
2017-12-20T07:43:22.010Z,5.53
2017-12-20T07:45:49.629Z,5.93
2017-12-20T07:48:17.231Z,6.10
2017-12-20T07:50:45.550Z,5.87
2017-12-20T07:53:13.117Z,5.50
2017-12-20T07:55:41.484Z,5.30
2017-12-20T07:58:09.051Z,5.87
2017-12-20T08:00:37.382Z,5.20
2017-12-20T08:03:04.990Z,5.30
2017-12-20T08:05:32.547Z,6.23
2017-12-20T08:08:00.164Z,5.27
2017-12-20T08:10:27.706Z,5.83
2017-12-20T08:12:55.274Z,4.97
2017-12-20T08:15:23.611Z,5.50
2017-12-20T08:17:51.175Z,5.37
2017-12-20T08:20:18.729Z,6.40
2017-12-20T08:22:46.308Z,4.07
2017-12-20T08:25:13.859Z,3.97
2017-12-20T08:27:41.438Z,4.40
2017-12-20T08:30:09.052Z,4.80
2017-12-20T08:32:37.390Z,5.50
2017-12-20T08:35:04.975Z,5.13
2017-12-20T08:37:32.559Z,5.20
2017-12-20T08:40:00.892Z,4.40
2017-12-20T08:42:28.459Z,5.33
2017-12-20T08:44:56.041Z,5.30
2017-12-20T08:47:23.578Z,4.67
2017-12-20T08:49:51.173Z,4.33
2017-12-20T08:52:19.506Z,5.23
2017-12-20T08:54:47.172Z,4.80
2017-12-20T08:57:15.489Z,5.03
2017-12-20T08:59:43.822Z,5.37
2017-12-20T09:02:11.419Z,4.30
2017-12-20T09:04:38.990Z,5.10
2017-12-20T09:07:07.339Z,5.87
2017-12-20T09:09:34.906Z,5.57
2017-12-20T09:12:02.548Z,4.87
2017-12-20T09:14:30.093Z,5.00
2017-12-20T09:16:57.692Z,5.80
2017-12-20T09:19:25.286Z,5.63
2017-12-20T09:21:52.890Z,5.10
2017-12-20T09:24:20.438Z,5.77
2017-12-20T09:26:47.983Z,4.63
2017-12-20T09:29:15.608Z,5.83
2017-12-20T09:31:43.155Z,6.47
2017-12-20T09:34:10.703Z,5.80
2017-12-20T09:36:38.282Z,5.70
2017-12-20T09:39:06.009Z,5.53
2017-12-20T09:41:33.566Z,5.70
2017-12-20T09:44:01.155Z,4.93
2017-12-20T09:46:28.725Z,6.10
2017-12-20T09:48:56.305Z,6.57
2017-12-20T09:51:23.951Z,6.70
2017-12-20T09:53:51.504Z,6.20
2017-12-20T09:56:19.047Z,6.23
2017-12-20T09:58:46.618Z,5.47
2017-12-20T10:01:14.245Z,6.10
2017-12-20T10:03:41.836Z,7.37
2017-12-20T10:06:09.399Z,5.10
2017-12-20T10:08:36.969Z,7.73
2017-12-20T10:11:04.570Z,6.00
2017-12-20T10:13:32.134Z,7.60
2017-12-20T10:15:59.710Z,7.60
2017-12-20T10:18:27.298Z,6.70
2017-12-20T10:20:55.630Z,6.90
2017-12-20T10:23:23.201Z,6.67
2017-12-20T10:25:50.797Z,6.73
2017-12-20T10:28:18.374Z,6.90
2017-12-20T10:30:45.942Z,7.30
2017-12-20T10:33:13.531Z,6.60
2017-12-20T10:35:41.097Z,6.97
2017-12-20T10:38:08.658Z,7.03
2017-12-20T10:40:36.234Z,7.77
2017-12-20T10:43:03.795Z,7.67
2017-12-20T10:45:31.356Z,7.17
2017-12-20T10:47:58.939Z,9.50
2017-12-20T10:50:26.505Z,7.87
2017-12-20T10:52:54.075Z,8.27
2017-12-20T10:55:21.691Z,8.00
2017-12-20T10:57:49.253Z,7.77
2017-12-20T11:00:16.861Z,8.43
2017-12-20T11:02:44.406Z,7.13
2017-12-20T11:05:11.988Z,9.80
2017-12-20T11:07:39.558Z,7.17
2017-12-20T11:10:07.144Z,7.50
2017-12-20T11:12:34.713Z,9.00
2017-12-20T11:15:02.325Z,7.30
2017-12-20T11:17:29.917Z,6.57
2017-12-20T11:19:58.237Z,8.57
2017-12-20T11:22:25.846Z,8.87
2017-12-20T11:24:54.222Z,8.27
2017-12-20T11:27:22.593Z,9.77
2017-12-20T11:29:50.168Z,9.00
2017-12-20T11:32:18.497Z,9.83
2017-12-20T11:34:46.070Z,9.07
2017-12-20T11:37:13.640Z,7.60
2017-12-20T11:39:41.201Z,8.33
2017-12-20T11:42:08.834Z,8.40
2017-12-20T11:44:36.606Z,8.77
2017-12-20T11:47:04.178Z,8.07
2017-12-20T11:49:31.759Z,8.07
2017-12-20T11:51:59.320Z,8.87
2017-12-20T11:54:26.885Z,9.47
2017-12-20T11:56:54.485Z,10.50
2017-12-20T11:59:22.071Z,8.93
2017-12-20T12:01:49.674Z,8.43
2017-12-20T12:04:17.241Z,8.30
2017-12-20T12:06:45.578Z,8.33
2017-12-20T12:09:13.155Z,9.20
2017-12-20T12:11:40.711Z,7.07
2017-12-20T12:14:08.310Z,7.83
2017-12-20T12:16:36.748Z,9.63
2017-12-20T12:19:04.331Z,8.63
2017-12-20T12:21:31.910Z,9.40
2017-12-20T12:24:00.231Z,9.40
2017-12-20T12:26:27.801Z,10.27
2017-12-20T12:28:55.382Z,9.70
2017-12-20T12:31:22.935Z,8.70
2017-12-20T12:33:50.516Z,9.20
2017-12-20T12:36:18.099Z,8.67
2017-12-20T12:38:46.426Z,9.67
2017-12-20T12:41:13.988Z,10.07
2017-12-20T12:43:41.589Z,9.33
2017-12-20T12:46:09.934Z,8.30
2017-12-20T12:48:37.537Z,12.33
2017-12-20T12:51:05.899Z,9.53
2017-12-20T12:53:33.446Z,8.97
2017-12-20T12:56:01.044Z,10.20
2017-12-20T12:58:28.622Z,8.23
2017-12-20T13:00:56.171Z,9.30
2017-12-20T13:03:23.774Z,9.23
2017-12-20T13:05:51.322Z,9.90
2017-12-20T13:08:18.870Z,10.90
2017-12-20T13:10:46.452Z,9.87
2017-12-20T13:13:14.068Z,9.30
2017-12-20T13:15:41.627Z,8.83
2017-12-20T13:18:09.230Z,10.50
2017-12-20T13:20:36.797Z,8.40
2017-12-20T13:23:04.403Z,9.03
2017-12-20T13:25:32.748Z,9.17
2017-12-20T13:28:00.321Z,9.67
2017-12-20T13:30:27.942Z,9.77
2017-12-20T13:32:55.515Z,8.97
2017-12-20T13:35:23.077Z,9.07
2017-12-20T13:37:50.652Z,9.50
2017-12-20T13:40:18.239Z,7.60
2017-12-20T13:42:46.570Z,8.53
2017-12-20T13:45:14.146Z,9.07
2017-12-20T13:47:41.774Z,9.27
2017-12-20T13:50:10.112Z,8.60
2017-12-20T13:52:37.690Z,9.57
2017-12-20T13:55:06.041Z,9.77
2017-12-20T13:57:33.612Z,8.77
2017-12-20T14:00:02.002Z,8.90
2017-12-20T14:02:30.349Z,8.47
2017-12-20T14:04:57.933Z,9.27
2017-12-20T14:07:25.590Z,10.57
2017-12-20T14:09:53.154Z,8.17
2017-12-20T14:12:20.730Z,9.30
2017-12-20T14:14:48.336Z,10.03
2017-12-20T14:17:15.908Z,10.17
2017-12-20T14:19:43.451Z,10.37
2017-12-20T14:22:11.038Z,10.07
2017-12-20T14:24:38.608Z,10.63
2017-12-20T14:27:06.904Z,11.70
2017-12-20T14:29:35.264Z,9.53
2017-12-20T14:32:02.839Z,10.77
2017-12-20T14:34:31.178Z,11.07
2017-12-20T14:36:58.766Z,9.40
2017-12-20T14:39:26.310Z,10.00
2017-12-20T14:41:53.898Z,9.03
2017-12-20T14:44:21.443Z,11.20
2017-12-20T14:46:49.025Z,10.67
2017-12-20T14:49:16.605Z,10.17
2017-12-20T14:51:44.193Z,9.70
2017-12-20T14:54:12.613Z,10.33
2017-12-20T14:56:40.184Z,12.47
2017-12-20T14:59:08.543Z,10.20
2017-12-20T15:01:36.113Z,11.50
2017-12-20T15:04:03.681Z,10.13
2017-12-20T15:06:31.275Z,11.30
2017-12-20T15:08:58.875Z,11.60
2017-12-20T15:11:26.450Z,11.80
2017-12-20T15:13:54.025Z,11.23
2017-12-20T15:16:21.602Z,10.60
2017-12-20T15:18:49.935Z,10.87
2017-12-20T15:21:17.482Z,10.53
2017-12-20T15:23:45.870Z,12.50
2017-12-20T15:26:13.423Z,10.83
2017-12-20T15:28:40.980Z,11.27
2017-12-20T15:31:08.602Z,11.50
2017-12-20T15:33:36.174Z,10.73
2017-12-20T15:36:03.750Z,12.20
2017-12-20T15:38:31.351Z,11.93
2017-12-20T15:40:58.935Z,11.23
2017-12-20T15:43:27.322Z,11.73
2017-12-20T15:45:55.631Z,11.13
2017-12-20T15:48:23.226Z,12.60
2017-12-20T15:50:50.863Z,10.67
2017-12-20T15:53:18.437Z,11.23
2017-12-20T15:55:46.004Z,12.43
2017-12-20T15:58:13.597Z,11.57
2017-12-20T16:00:41.165Z,11.80
2017-12-20T16:03:08.759Z,11.20
2017-12-20T16:05:36.535Z,13.07
2017-12-20T16:08:04.091Z,11.90
2017-12-20T16:10:31.729Z,12.10
2017-12-20T16:12:59.316Z,12.00
2017-12-20T16:15:26.871Z,11.80
2017-12-20T16:17:54.478Z,10.23
2017-12-20T16:20:22.798Z,13.30
2017-12-20T16:22:50.362Z,12.47
2017-12-20T16:25:18.730Z,12.87
2017-12-20T16:27:46.330Z,12.00
2017-12-20T16:30:13.878Z,11.87
2017-12-20T16:32:41.446Z,12.73
2017-12-20T16:35:09.022Z,11.77
2017-12-20T16:37:36.576Z,10.33
2017-12-20T16:40:04.209Z,9.20
2017-12-20T16:42:31.781Z,11.20
2017-12-20T16:44:59.359Z,11.20
2017-12-20T16:47:26.911Z,9.37
2017-12-20T16:49:54.489Z,9.80
2017-12-20T16:52:22.069Z,11.03
2017-12-20T16:54:49.636Z,11.87
2017-12-20T16:57:17.237Z,10.77
2017-12-20T16:59:44.818Z,13.03
2017-12-20T17:02:12.368Z,14.57
2017-12-20T17:04:39.974Z,11.33
2017-12-20T17:07:07.547Z,11.47
2017-12-20T17:09:35.877Z,11.13
2017-12-20T17:12:03.476Z,10.10
2017-12-20T17:14:31.061Z,11.23
2017-12-20T17:16:58.665Z,11.13
2017-12-20T17:19:26.208Z,8.90
2017-12-20T17:21:53.752Z,11.07
2017-12-20T17:24:21.349Z,10.47
2017-12-20T17:26:48.914Z,11.10
2017-12-20T17:29:17.251Z,13.67
2017-12-20T17:31:44.836Z,9.93
2017-12-20T17:34:12.860Z,9.90
2017-12-20T17:36:40.438Z,10.80
2017-12-20T17:39:07.990Z,10.27
2017-12-20T17:41:35.571Z,9.70
2017-12-20T17:44:03.219Z,9.70
2017-12-20T17:46:30.790Z,9.30
2017-12-20T17:48:58.362Z,10.27
2017-12-20T17:51:25.950Z,8.43
2017-12-20T17:53:53.516Z,8.87
2017-12-20T17:56:21.083Z,11.43
2017-12-20T17:58:48.677Z,8.00
2017-12-20T18:01:16.245Z,9.47
2017-12-20T18:03:43.836Z,9.30
2017-12-20T18:06:11.404Z,9.07
2017-12-20T18:08:38.955Z,9.90
2017-12-20T18:11:06.566Z,7.80
2017-12-20T18:13:34.891Z,8.10
2017-12-20T18:16:02.454Z,7.70
2017-12-20T18:18:30.062Z,7.93
2017-12-20T18:20:57.619Z,8.60
2017-12-20T18:23:25.170Z,8.80
2017-12-20T18:25:52.746Z,8.50
2017-12-20T18:28:20.303Z,8.20
2017-12-20T18:30:47.872Z,8.43
2017-12-20T18:33:15.451Z,9.50
2017-12-20T18:35:43.067Z,7.37
2017-12-20T18:38:10.650Z,9.17
2017-12-20T18:40:38.206Z,8.03
2017-12-20T18:43:05.799Z,8.67
2017-12-20T18:45:33.375Z,9.93
2017-12-20T18:48:00.926Z,9.50
2017-12-20T18:50:28.488Z,9.30
2017-12-20T18:52:56.085Z,9.50
2017-12-20T18:55:23.628Z,9.00
2017-12-20T18:57:51.182Z,9.40
2017-12-20T19:00:18.777Z,8.63
2017-12-20T19:02:46.326Z,8.70
2017-12-20T19:05:14.052Z,11.00
2017-12-20T19:07:41.634Z,9.73
2017-12-20T19:10:09.221Z,10.07
2017-12-20T19:12:37.089Z,8.50
2017-12-20T19:15:04.710Z,10.23
2017-12-20T19:17:32.287Z,10.13
2017-12-20T19:19:59.889Z,11.63
2017-12-20T19:22:28.239Z,11.93
2017-12-20T19:24:56.018Z,11.47
2017-12-20T19:27:24.362Z,10.33
2017-12-20T19:29:51.944Z,12.83
2017-12-20T19:32:19.584Z,10.20
2017-12-20T19:34:47.238Z,9.77
2017-12-20T19:37:14.909Z,13.60
2017-12-20T19:39:42.515Z,10.57
2017-12-20T19:42:10.104Z,12.10
2017-12-20T19:44:37.742Z,10.40
2017-12-20T19:47:06.157Z,10.30
2017-12-20T19:49:33.762Z,10.77
2017-12-20T19:52:01.484Z,11.60
2017-12-20T19:54:29.157Z,10.10
2017-12-20T19:56:56.832Z,8.83
2017-12-20T19:59:24.516Z,9.30
2017-12-20T20:01:53.004Z,9.60
2017-12-20T20:04:20.688Z,9.63
2017-12-20T20:06:49.197Z,10.10
2017-12-20T20:09:16.936Z,9.87
2017-12-20T20:11:44.724Z,10.33
2017-12-20T20:14:13.160Z,11.40
2017-12-20T20:16:41.251Z,9.93
2017-12-20T20:19:09.388Z,9.30
2017-12-20T20:21:37.118Z,11.67
2017-12-20T20:24:04.766Z,12.00
2017-12-20T20:26:33.507Z,10.77
2017-12-20T20:29:01.246Z,12.00
2017-12-20T20:31:28.838Z,11.43
2017-12-20T20:33:56.566Z,10.40
2017-12-20T20:36:24.228Z,13.20
2017-12-20T20:38:51.855Z,10.33
2017-12-20T20:41:19.559Z,13.30
2017-12-20T20:43:47.216Z,10.50
2017-12-20T20:46:15.013Z,11.77
2017-12-20T20:48:42.950Z,12.10
2017-12-20T20:51:10.674Z,12.33
2017-12-20T20:53:38.312Z,10.80
2017-12-20T20:56:05.972Z,12.00
2017-12-20T20:58:33.654Z,10.87
2017-12-20T21:01:01.282Z,11.70
2017-12-20T21:03:28.934Z,12.73
2017-12-20T21:05:56.546Z,12.40
2017-12-20T21:08:24.914Z,12.27
2017-12-20T21:10:52.541Z,13.87
2017-12-20T21:13:20.138Z,13.23
2017-12-20T21:15:48.478Z,12.57
2017-12-20T21:18:16.151Z,12.40
2017-12-20T21:20:43.759Z,12.83
2017-12-20T21:23:11.397Z,12.23
2017-12-20T21:25:38.963Z,12.07
2017-12-20T21:28:06.582Z,10.97
2017-12-20T21:30:34.195Z,12.17
2017-12-20T21:33:01.806Z,12.40
2017-12-20T21:35:29.437Z,11.90
2017-12-20T21:37:57.762Z,12.93
2017-12-20T21:40:25.333Z,11.40
2017-12-20T21:42:52.933Z,12.60
2017-12-20T21:45:20.493Z,12.60
2017-12-20T21:47:48.842Z,11.40
2017-12-20T21:50:16.426Z,11.70
2017-12-20T21:52:43.982Z,13.07
2017-12-20T21:55:11.623Z,14.17
2017-12-20T21:57:39.205Z,10.90
2017-12-20T22:00:07.558Z,11.40
2017-12-20T22:02:35.186Z,12.83
2017-12-20T22:05:02.788Z,11.10
2017-12-20T22:07:30.414Z,13.47
2017-12-20T22:09:57.992Z,11.90
2017-12-20T22:12:26.371Z,12.37
2017-12-20T22:14:53.932Z,12.00
2017-12-20T22:17:21.522Z,13.07
2017-12-20T22:19:49.117Z,11.50
2017-12-20T22:22:16.686Z,10.70
2017-12-20T22:24:44.269Z,10.33
2017-12-20T22:27:11.865Z,11.93
2017-12-20T22:29:39.406Z,13.57
2017-12-20T22:32:07.042Z,12.90
2017-12-20T22:34:34.677Z,12.60
2017-12-20T22:37:02.227Z,12.87
2017-12-20T22:39:29.852Z,11.10
2017-12-20T22:41:57.407Z,11.67
2017-12-20T22:44:24.978Z,10.47
2017-12-20T22:46:52.660Z,11.87
2017-12-20T22:49:20.202Z,12.10
2017-12-20T22:51:47.783Z,12.83
2017-12-20T22:54:15.385Z,10.73
2017-12-20T22:56:43.178Z,11.77
2017-12-20T22:59:10.758Z,12.07
2017-12-20T23:01:38.324Z,11.80
2017-12-20T23:04:05.914Z,12.33
2017-12-20T23:06:34.280Z,12.10
2017-12-20T23:09:01.864Z,12.27
2017-12-20T23:11:30.191Z,13.90
2017-12-20T23:13:57.797Z,13.00
2017-12-20T23:16:26.137Z,12.37
2017-12-20T23:18:53.734Z,12.33
2017-12-20T23:21:22.089Z,13.87
2017-12-20T23:23:49.646Z,12.40
2017-12-20T23:26:17.234Z,12.63
2017-12-20T23:28:45.558Z,13.13
2017-12-20T23:31:13.102Z,14.33
2017-12-20T23:33:40.882Z,12.50
2017-12-20T23:36:08.461Z,13.70
2017-12-20T23:38:36.021Z,12.43
2017-12-20T23:41:03.646Z,11.27
2017-12-20T23:43:31.245Z,13.20
2017-12-20T23:45:58.810Z,13.13
2017-12-20T23:48:26.383Z,12.87
2017-12-20T23:50:53.993Z,12.10
2017-12-20T23:53:21.555Z,12.33
2017-12-20T23:55:49.112Z,12.60
2017-12-20T23:58:16.725Z,14.90
